Time;durP1;ratioP1;P1;durP2;ratioP2;P2;SDS_P1;SDS_P2;PMS_P1;PMS_P2;Temp;Humidity;BMP_temperature;BMP_pressure;BME280_temperature;BME280_humidity;BME280_pressure;Samples;Min_cycle;Max_cycle;Signal;HPM_P1;HPM_P2
2021/01/24 00:00:00;;;;;;;27.20;13.18;;;;;;;3.14;100.00;98889.84;4983489;28;20092;-79
2021/01/24 00:02:25;;;;;;;23.67;13.40;;;;;;;3.17;100.00;98894.50;4997339;28;20033;-80
2021/01/24 00:04:53;;;;;;;26.50;13.65;;;;;;;3.17;100.00;98885.72;5005523;28;20510;-80
2021/01/24 00:07:18;;;;;;;24.90;13.40;;;;;;;3.18;100.00;98884.59;4997419;28;20188;-79
2021/01/24 00:09:44;;;;;;;29.38;15.27;;;;;;;3.11;100.00;98885.25;4999515;28;20041;-79
2021/01/24 00:12:09;;;;;;;30.85;14.98;;;;;;;3.12;100.00;98886.78;4983390;28;20049;-80
2021/01/24 00:14:36;;;;;;;28.10;14.25;;;;;;;3.12;100.00;98881.44;5001735;28;20040;-78
2021/01/24 00:17:01;;;;;;;26.63;14.43;;;;;;;3.11;100.00;98885.25;4998315;28;20075;-78
2021/01/24 00:19:27;;;;;;;28.85;14.07;;;;;;;3.05;100.00;98876.00;5043960;28;20024;-78
2021/01/24 00:21:52;;;;;;;28.80;13.80;;;;;;;2.98;100.00;98885.72;5057446;28;20098;-77
2021/01/24 00:24:18;;;;;;;31.10;15.20;;;;;;;3.02;100.00;98887.31;5065847;28;20493;-77
2021/01/24 00:26:43;;;;;;;29.20;15.18;;;;;;;3.08;100.00;98893.16;5091731;28;20463;-78
2021/01/24 00:29:09;;;;;;;30.30;14.65;;;;;;;3.11;100.00;98898.53;5057483;28;20036;-78
2021/01/24 00:31:34;;;;;;;30.92;14.02;;;;;;;3.12;100.00;98894.75;5089916;28;20429;-77
2021/01/24 00:34:00;;;;;;;25.88;14.32;;;;;;;3.13;100.00;98895.53;5086814;28;20028;-80
2021/01/24 00:36:25;;;;;;;26.63;14.05;;;;;;;3.08;100.00;98901.88;5040900;28;20032;-79
2021/01/24 00:38:51;;;;;;;25.58;13.57;;;;;;;3.15;100.00;98904.69;5046848;28;20167;-77
2021/01/24 00:41:16;;;;;;;27.85;13.98;;;;;;;3.13;100.00;98900.84;5054429;28;20039;-78
2021/01/24 00:43:42;;;;;;;26.42;15.05;;;;;;;3.14;100.00;98905.03;5037490;28;20036;-79
2021/01/24 00:46:07;;;;;;;26.10;14.75;;;;;;;3.20;100.00;98904.41;5086878;28;20113;-80
2021/01/24 00:48:37;;;;;;;26.05;14.60;;;;;;;3.18;100.00;98901.34;5055767;28;20037;-79
2021/01/24 00:51:04;;;;;;;26.02;14.23;;;;;;;3.17;100.00;98902.47;5050015;28;20670;-79
2021/01/24 00:53:30;;;;;;;35.38;15.50;;;;;;;3.16;100.00;98898.25;5039871;28;20374;-79
2021/01/24 00:55:56;;;;;;;27.95;15.05;;;;;;;3.11;100.00;98903.84;5075777;28;20138;-79
2021/01/24 00:58:21;;;;;;;26.40;13.70;;;;;;;3.00;100.00;98905.50;5076781;28;20032;-78
2021/01/24 01:00:46;;;;;;;28.17;13.98;;;;;;;2.92;100.00;98919.00;5084870;28;20047;-77
2021/01/24 01:03:12;;;;;;;27.90;14.13;;;;;;;2.99;100.00;98903.19;5071371;28;20447;-78
2021/01/24 01:05:39;;;;;;;26.02;14.43;;;;;;;2.95;100.00;98908.44;5050219;28;20115;-80
2021/01/24 01:08:05;;;;;;;30.13;14.50;;;;;;;2.82;100.00;98904.34;5041027;28;20040;-78
2021/01/24 01:10:32;;;;;;;27.85;14.63;;;;;;;2.89;100.00;98888.56;5040122;28;20401;-78
2021/01/24 01:12:57;;;;;;;26.30;14.50;;;;;;;2.94;100.00;98895.50;5061411;28;20025;-79
2021/01/24 01:15:23;;;;;;;31.05;15.60;;;;;;;2.92;100.00;98898.50;5056863;28;20120;-79
2021/01/24 01:17:50;;;;;;;24.35;13.30;;;;;;;2.93;100.00;98888.63;5056203;28;20386;-77
2021/01/24 01:20:16;;;;;;;25.02;13.77;;;;;;;2.92;100.00;98887.88;5036313;28;20561;-79
2021/01/24 01:22:41;;;;;;;29.88;15.23;;;;;;;2.89;100.00;98898.41;5037505;28;20087;-79
2021/01/24 01:25:07;;;;;;;30.13;15.63;;;;;;;2.80;100.00;98885.34;5037000;28;20032;-78
2021/01/24 01:27:33;;;;;;;26.95;13.63;;;;;;;2.79;100.00;98888.34;5030200;28;20079;-78
2021/01/24 01:29:58;;;;;;;26.00;13.77;;;;;;;2.82;100.00;98885.75;5014546;28;20585;-79
2021/01/24 01:32:24;;;;;;;30.95;15.18;;;;;;;2.75;100.00;98877.63;5038984;28;20033;-79
2021/01/24 01:34:50;;;;;;;30.73;14.95;;;;;;;2.74;100.00;98881.41;5052493;28;20406;-78
2021/01/24 01:37:15;;;;;;;27.73;14.32;;;;;;;2.77;100.00;98880.69;5045158;28;20493;-78
2021/01/24 01:39:46;;;;;;;28.50;14.07;;;;;;;2.74;100.00;98887.50;5041895;28;20464;-79
2021/01/24 01:42:16;;;;;;;29.90;14.57;;;;;;;2.60;100.00;98895.13;5048980;28;20020;-78
2021/01/24 01:44:43;;;;;;;27.83;13.40;;;;;;;2.65;100.00;98886.88;5060267;28;20032;-78
2021/01/24 01:47:10;;;;;;;29.33;14.60;;;;;;;2.64;100.00;98897.88;5055879;28;20035;-80
2021/01/24 01:49:36;;;;;;;33.70;15.45;;;;;;;2.71;100.00;98892.69;5042231;28;20033;-79
2021/01/24 01:52:02;;;;;;;30.35;14.25;;;;;;;2.72;100.00;98891.59;5076564;28;20042;-79
2021/01/24 01:54:28;;;;;;;32.40;15.50;;;;;;;2.70;100.00;98893.84;5042369;28;20080;-78
2021/01/24 01:56:54;;;;;;;27.23;14.07;;;;;;;2.71;100.00;98892.69;5058644;28;20028;-80
2021/01/24 01:59:40;;;;;;;27.67;14.48;;;;;;;2.74;100.00;98887.50;5075598;28;20062;-79
2021/01/24 02:02:28;;;;;;;24.15;13.50;;;;;;;2.65;100.00;98878.16;5007483;28;20601;-78
2021/01/24 02:05:06;;;;;;;25.52;13.52;;;;;;;2.54;100.00;98887.75;5020039;28;20041;-80
2021/01/24 02:07:46;;;;;;;28.70;13.35;;;;;;;2.42;100.00;98875.34;4984813;28;20038;-79
2021/01/24 02:10:29;;;;;;;26.90;13.38;;;;;;;2.35;100.00;98879.72;4980716;28;20037;-81
2021/01/24 02:13:17;;;;;;;24.92;13.65;;;;;;;2.39;100.00;98886.69;5010546;28;20085;-78
2021/01/24 02:15:45;;;;;;;25.02;13.50;;;;;;;2.38;100.00;98887.03;4989939;28;20042;-80
2021/01/24 02:18:11;;;;;;;25.38;14.07;;;;;;;2.36;100.00;98895.31;5005541;28;20037;-79
2021/01/24 02:20:45;;;;;;;28.45;13.80;;;;;;;2.44;100.00;98883.75;5012132;28;20092;-80
2021/01/24 02:23:12;;;;;;;25.70;13.40;;;;;;;2.38;100.00;98892.34;4998039;28;20041;-80
2021/01/24 02:25:55;;;;;;;28.42;13.10;;;;;;;2.34;100.00;98886.91;4994632;28;20046;-78
2021/01/24 02:28:36;;;;;;;21.90;11.98;;;;;;;2.26;100.00;98892.44;4980556;28;20026;-80
2021/01/24 02:31:04;;;;;;;25.58;13.57;;;;;;;2.25;100.00;98901.50;5003113;28;20049;-80
2021/01/24 02:33:33;;;;;;;27.88;14.57;;;;;;;2.20;100.00;98899.88;4999333;28;20111;-79
2021/01/24 02:36:01;;;;;;;25.63;13.65;;;;;;;2.22;100.00;98900.31;4983930;28;20052;-79
2021/01/24 02:38:28;;;;;;;26.13;13.00;;;;;;;2.16;100.00;98908.84;4993491;28;20051;-81
2021/01/24 02:40:55;;;;;;;28.08;13.07;;;;;;;2.14;100.00;98905.78;5054848;28;20496;-80
2021/01/24 02:43:21;;;;;;;26.17;13.25;;;;;;;2.12;100.00;98894.72;5090753;28;20028;-79
2021/01/24 02:45:49;;;;;;;23.58;12.32;;;;;;;2.09;100.00;98892.78;5058516;28;20043;-78
2021/01/24 02:48:17;;;;;;;28.17;13.93;;;;;;;1.99;100.00;98895.91;5040637;28;20025;-80
2021/01/24 02:50:44;;;;;;;27.88;13.77;;;;;;;2.01;100.00;98893.69;5053331;28;20036;-78
2021/01/24 02:53:10;;;;;;;26.00;13.48;;;;;;;2.08;100.00;98907.13;5057142;28;20485;-79
2021/01/24 02:55:36;;;;;;;23.92;13.13;;;;;;;2.00;100.00;98900.88;5040178;28;20032;-80
2021/01/24 02:58:02;;;;;;;25.70;13.25;;;;;;;2.04;100.00;98898.31;5038541;28;20048;-80
2021/01/24 03:00:29;;;;;;;28.65;13.55;;;;;;;1.99;100.00;98903.88;5056453;28;20039;-80
2021/01/24 03:02:55;;;;;;;28.23;13.50;;;;;;;1.97;100.00;98906.88;5067880;28;20029;-79
2021/01/24 03:05:20;;;;;;;29.90;14.60;;;;;;;1.99;100.00;98906.53;5034538;28;20143;-78
2021/01/24 03:07:47;;;;;;;28.75;13.82;;;;;;;1.98;100.00;98904.97;5036607;28;20043;-80
2021/01/24 03:10:14;;;;;;;28.45;14.10;;;;;;;1.99;100.00;98904.66;5035856;28;20079;-79
2021/01/24 03:12:47;;;;;;;28.20;14.70;;;;;;;1.99;100.00;98903.88;5055348;28;20500;-80
2021/01/24 03:15:35;;;;;;;27.50;14.07;;;;;;;1.92;100.00;98898.41;5058166;28;20044;-78
2021/01/24 03:18:04;;;;;;;28.83;14.07;;;;;;;1.84;100.00;98890.25;5013463;28;20101;-80
2021/01/24 03:20:33;;;;;;;27.13;13.85;;;;;;;1.84;100.00;98898.22;4996930;28;20485;-80
2021/01/24 03:23:03;;;;;;;31.05;14.32;;;;;;;1.91;100.00;98902.16;5014965;28;20050;-78
2021/01/24 03:25:30;;;;;;;28.88;13.63;;;;;;;1.83;100.00;98896.69;4996475;28;20132;-77
2021/01/24 03:27:57;;;;;;;26.90;13.32;;;;;;;1.91;100.00;98892.31;4999316;28;20049;-79
2021/01/24 03:30:22;;;;;;;26.60;13.30;;;;;;;1.89;100.00;98893.75;5004016;28;20501;-78
2021/01/24 03:32:48;;;;;;;29.58;14.95;;;;;;;1.80;100.00;98894.69;5013545;28;20041;-80
2021/01/24 03:35:14;;;;;;;31.20;14.63;;;;;;;1.77;100.00;98890.06;4987127;28;20038;-79
2021/01/24 03:37:39;;;;;;;27.63;13.60;;;;;;;1.81;100.00;98893.59;4978939;28;20506;-78
2021/01/24 03:40:05;;;;;;;27.70;14.05;;;;;;;1.77;100.00;98895.38;5010143;28;20433;-77
2021/01/24 03:42:31;;;;;;;30.38;14.98;;;;;;;1.79;100.00;98897.69;5010874;28;20088;-78
2021/01/24 03:44:56;;;;;;;26.38;13.13;;;;;;;1.75;100.00;98888.88;4994644;28;20033;-80
2021/01/24 03:47:22;;;;;;;26.17;13.75;;;;;;;1.74;100.00;98896.03;4995266;28;20489;-80
2021/01/24 03:49:47;;;;;;;26.10;12.98;;;;;;;1.83;100.00;98909.94;4985368;28;20045;-79
2021/01/24 03:52:13;;;;;;;28.05;13.77;;;;;;;1.79;100.00;98908.31;5017165;28;20038;-78
2021/01/24 03:54:39;;;;;;;27.75;13.95;;;;;;;1.80;100.00;98913.25;5023045;28;20142;-79
2021/01/24 03:57:04;;;;;;;26.65;13.98;;;;;;;1.65;100.00;98907.91;5044695;28;20436;-78
2021/01/24 03:59:29;;;;;;;27.70;14.52;;;;;;;1.71;100.00;98909.22;5060876;28;20039;-78
2021/01/24 04:01:55;;;;;;;31.00;14.75;;;;;;;1.72;100.00;98919.47;5079092;28;20028;-78
2021/01/24 04:04:41;;;;;;;27.38;13.68;;;;;;;1.69;100.00;98912.22;5042401;28;20139;-78
2021/01/24 04:07:06;;;;;;;29.30;14.30;;;;;;;1.69;100.00;98903.47;5008468;28;20057;-79
2021/01/24 04:09:32;;;;;;;28.55;14.93;;;;;;;1.72;100.00;98908.88;5014645;28;20037;-79
2021/01/24 04:11:57;;;;;;;28.90;15.07;;;;;;;1.74;100.00;98913.88;5008819;28;20042;-79
2021/01/24 04:14:22;;;;;;;28.88;14.38;;;;;;;1.75;100.00;98902.13;5007307;28;20195;-78
2021/01/24 04:17:08;;;;;;;29.27;14.75;;;;;;;1.72;100.00;98897.50;4999937;28;20107;-78
2021/01/24 04:19:34;;;;;;;27.80;14.45;;;;;;;1.70;100.00;98892.53;4965616;28;20090;-78
2021/01/24 04:21:59;;;;;;;33.72;16.67;;;;;;;1.70;100.00;98892.53;4957111;29;20043;-78
2021/01/24 04:24:25;;;;;;;33.53;15.57;;;;;;;1.64;100.00;98888.59;4927398;29;20511;-77
2021/01/24 04:26:51;;;;;;;29.25;14.85;;;;;;;1.68;100.00;98892.09;4941461;29;20042;-77
2021/01/24 04:29:17;;;;;;;31.13;15.70;;;;;;;1.73;100.00;98893.75;4941352;29;20047;-79
2021/01/24 04:31:42;;;;;;;36.95;15.88;;;;;;;1.69;100.00;98891.00;4946135;28;20094;-78
2021/01/24 04:34:08;;;;;;;33.72;16.30;;;;;;;1.72;100.00;98886.91;4933927;29;20043;-78
2021/01/24 04:36:33;;;;;;;33.67;16.35;;;;;;;1.71;100.00;98888.78;4957471;28;20051;-79
2021/01/24 04:38:59;;;;;;;32.05;15.82;;;;;;;1.70;100.00;98879.25;4956515;28;20050;-79
2021/01/24 04:41:26;;;;;;;29.20;15.82;;;;;;;1.72;100.00;98885.00;4957098;29;20503;-78
2021/01/24 04:43:52;;;;;;;34.97;17.23;;;;;;;1.71;100.00;98878.16;4971211;28;20162;-78
2021/01/24 04:46:18;;;;;;;33.47;17.42;;;;;;;1.68;100.00;98876.19;5031563;28;20038;-78
2021/01/24 04:48:43;;;;;;;34.22;16.83;;;;;;;1.63;100.00;98876.44;5013996;28;20048;-78
2021/01/24 04:51:12;;;;;;;29.02;15.23;;;;;;;1.68;100.00;98878.09;5004041;28;20073;-79
2021/01/24 04:53:39;;;;;;;32.08;15.65;;;;;;;1.64;100.00;98878.00;4998666;28;20077;-79
2021/01/24 04:56:05;;;;;;;35.13;15.02;;;;;;;1.68;100.00;98883.38;5011493;28;20033;-77
2021/01/24 04:58:31;;;;;;;34.20;15.65;;;;;;;1.68;100.00;98872.78;5058891;28;20039;-79
2021/01/24 05:00:56;;;;;;;34.63;15.48;;;;;;;1.66;100.00;98872.34;5058633;28;20025;-79
2021/01/24 05:03:22;;;;;;;28.60;15.70;;;;;;;1.67;100.00;98879.19;5060237;28;20457;-78
2021/01/24 05:05:47;;;;;;;31.45;14.85;;;;;;;1.69;100.00;98877.72;5074931;28;20048;-78
2021/01/24 05:08:15;;;;;;;28.73;14.45;;;;;;;1.66;100.00;98870.47;5046177;28;20448;-78
2021/01/24 05:10:44;;;;;;;32.10;15.30;;;;;;;1.70;100.00;98871.31;5077085;28;20033;-79
2021/01/24 05:13:10;;;;;;;30.13;15.07;;;;;;;1.74;100.00;98872.16;5077270;28;20092;-78
2021/01/24 05:15:36;;;;;;;35.47;16.88;;;;;;;1.75;100.00;98862.34;5048093;28;20056;-78
2021/01/24 05:18:03;;;;;;;33.25;17.10;;;;;;;1.73;100.00;98864.56;5047705;28;20029;-79
2021/01/24 05:20:32;;;;;;;35.83;16.52;;;;;;;1.75;100.00;98863.13;5057192;28;20047;-79
2021/01/24 05:23:04;;;;;;;39.75;16.48;;;;;;;1.72;100.00;98869.09;5061139;28;20035;-78
2021/01/24 05:25:32;;;;;;;32.17;16.45;;;;;;;1.76;100.00;98869.19;5076729;28;20032;-79
2021/01/24 05:28:15;;;;;;;33.45;16.48;;;;;;;1.78;100.00;98867.72;5058488;28;20036;-77
2021/01/24 05:30:40;;;;;;;33.35;16.90;;;;;;;1.81;100.00;98867.06;5046612;28;20170;-79
2021/01/24 05:33:06;;;;;;;33.08;16.02;;;;;;;1.76;100.00;98869.19;5056506;28;20052;-78
2021/01/24 05:35:31;;;;;;;30.67;16.20;;;;;;;1.80;100.00;98862.09;5065066;28;20032;-77
2021/01/24 05:37:57;;;;;;;39.00;16.48;;;;;;;1.76;100.00;98856.69;5058164;28;20043;-77
2021/01/24 05:40:22;;;;;;;34.72;16.92;;;;;;;1.77;100.00;98857.47;5054219;28;20487;-78
2021/01/24 05:42:48;;;;;;;36.17;15.68;;;;;;;1.79;100.00;98869.28;5081837;28;20127;-78
2021/01/24 05:45:18;;;;;;;33.83;17.20;;;;;;;1.77;100.00;98868.84;5048333;28;20036;-77
2021/01/24 05:47:45;;;;;;;34.92;17.45;;;;;;;1.71;100.00;98867.56;5057334;28;20506;-77
2021/01/24 05:50:16;;;;;;;39.67;17.98;;;;;;;1.67;100.00;98861.38;5057435;28;20191;-78
2021/01/24 05:52:46;;;;;;;;;;;;;;;1.66;100.00;98865.16;5058347;28;20385;-78
2021/01/24 05:55:30;;;;;;;36.58;17.77;;;;;;;1.61;100.00;98865.41;5057534;28;19947;-78
2021/01/24 05:57:56;;;;;;;36.00;17.20;;;;;;;1.55;100.00;98873.94;5097783;28;20520;-78
2021/01/24 06:00:22;;;;;;;35.35;17.52;;;;;;;1.52;100.00;98875.41;5070274;28;20055;-79
2021/01/24 06:02:49;;;;;;;34.65;17.00;;;;;;;1.56;100.00;98876.25;5072432;28;20040;-77
2021/01/24 06:05:14;;;;;;;31.85;16.38;;;;;;;1.51;100.00;98887.09;5057723;28;20043;-78
2021/01/24 06:07:40;;;;;;;36.70;16.90;;;;;;;1.58;100.00;98882.00;5055373;28;20401;-78
2021/01/24 06:10:06;;;;;;;33.88;16.20;;;;;;;1.62;100.00;98884.75;5065516;28;20546;-78
2021/01/24 06:12:35;;;;;;;36.00;16.27;;;;;;;1.64;100.00;98890.47;5032203;28;20036;-79
2021/01/24 06:15:03;;;;;;;36.20;16.45;;;;;;;1.70;100.00;98889.88;5055257;28;20486;-79
2021/01/24 06:17:36;;;;;;;33.90;16.83;;;;;;;1.68;100.00;98891.34;5069297;28;20036;-78
2021/01/24 06:20:05;;;;;;;33.25;16.83;;;;;;;1.69;100.00;98885.69;5050968;28;20406;-78
2021/01/24 06:22:42;;;;;;;41.03;18.17;;;;;;;1.71;100.00;98894.09;5038454;28;20020;-81
2021/01/24 06:25:17;;;;;;;34.38;16.50;;;;;;;1.72;100.00;98900.91;5080040;28;20127;-79
2021/01/24 06:27:50;;;;;;;33.60;17.02;;;;;;;1.71;100.00;98903.91;5041510;28;20043;-77
2021/01/24 06:30:17;;;;;;;37.05;16.92;;;;;;;1.73;100.00;98913.09;5050401;28;20029;-78
2021/01/24 06:32:43;;;;;;;36.03;16.85;;;;;;;1.77;100.00;98913.94;5051158;28;20032;-78
2021/01/24 06:35:20;;;;;;;36.28;16.85;;;;;;;1.76;100.00;98914.28;5053465;28;20039;-77
2021/01/24 06:37:51;;;;;;;33.40;16.40;;;;;;;1.78;100.00;98920.78;5078528;28;20048;-77
2021/01/24 06:40:31;;;;;;;42.25;19.50;;;;;;;1.69;100.00;98922.81;5071751;28;20028;-77
2021/01/24 06:43:01;;;;;;;37.92;17.08;;;;;;;1.74;100.00;98922.56;5049872;28;20036;-78
2021/01/24 06:45:27;;;;;;;35.50;18.03;;;;;;;1.77;100.00;98916.59;5075622;28;20033;-77
2021/01/24 06:47:54;;;;;;;37.75;17.33;;;;;;;1.79;100.00;98925.00;5033839;28;20290;-78
2021/01/24 06:50:56;;;;;;;34.70;17.33;;;;;;;1.83;100.00;98925.09;5063458;28;20028;-78
2021/01/24 06:53:23;;;;;;;35.35;17.45;;;;;;;1.81;100.00;98928.09;5050932;28;20048;-78
2021/01/24 06:55:53;;;;;;;34.78;16.85;;;;;;;1.83;100.00;98933.03;5067333;28;20045;-77
2021/01/24 06:58:35;;;;;;;39.13;18.75;;;;;;;1.71;100.00;98931.22;5047150;28;20486;-78
2021/01/24 07:01:23;;;;;;;36.10;17.33;;;;;;;1.72;100.00;98938.06;5055928;28;20028;-78
2021/01/24 07:04:28;;;;;;;38.85;17.85;;;;;;;1.78;100.00;98935.94;5069141;28;20024;-77
2021/01/24 07:06:54;;;;;;;37.88;18.13;;;;;;;1.83;100.00;98943.66;5039423;28;20115;-78
2021/01/24 07:09:25;;;;;;;42.53;18.90;;;;;;;1.84;100.00;98942.53;5055974;28;20043;-78
2021/01/24 07:12:05;;;;;;;35.78;17.25;;;;;;;1.79;100.00;98946.22;5076967;28;20068;-79
2021/01/24 07:14:37;;;;;;;38.33;17.80;;;;;;;1.87;100.00;98949.06;5046213;28;20041;-78
2021/01/24 07:17:07;;;;;;;34.65;17.42;;;;;;;1.82;100.00;98948.19;5038642;28;20040;-78
2021/01/24 07:19:37;;;;;;;40.28;18.45;;;;;;;1.82;100.00;98952.72;5088762;28;20037;-79
2021/01/24 07:22:04;;;;;;;35.50;17.15;;;;;;;1.84;100.00;98959.22;5055270;28;20163;-79
2021/01/24 07:24:30;;;;;;;40.83;19.48;;;;;;;1.87;100.00;98965.75;5058329;28;20029;-77
2021/01/24 07:26:57;;;;;;;37.65;18.10;;;;;;;1.87;100.00;98957.00;5035632;28;20033;-78
2021/01/24 07:29:22;;;;;;;38.17;18.23;;;;;;;1.85;100.00;98970.63;5044134;28;20443;-77
2021/01/24 07:31:49;;;;;;;41.95;18.90;;;;;;;1.87;100.00;98971.06;5060068;28;20040;-78
2021/01/24 07:34:24;;;;;;;40.47;18.42;;;;;;;1.86;100.00;98972.16;5038997;28;20029;-78
2021/01/24 07:36:50;;;;;;;37.03;17.88;;;;;;;1.87;100.00;98976.38;5040456;28;20125;-77
2021/01/24 07:39:16;;;;;;;36.97;18.58;;;;;;;1.90;100.00;98970.38;5042479;28;20064;-78
2021/01/24 07:41:43;;;;;;;36.22;18.13;;;;;;;1.92;100.00;98975.34;5061238;28;20107;-79
2021/01/24 07:44:10;;;;;;;38.55;19.08;;;;;;;1.95;100.00;98982.63;5079145;28;20120;-78
2021/01/24 07:46:36;;;;;;;41.10;19.13;;;;;;;1.93;100.00;98982.19;5041443;28;20132;-78
2021/01/24 07:49:03;;;;;;;43.65;19.77;;;;;;;1.90;100.00;98986.28;5043486;28;20052;-78
2021/01/24 07:51:28;;;;;;;37.85;18.08;;;;;;;1.93;100.00;98987.50;5051224;28;20467;-78
2021/01/24 07:53:58;;;;;;;40.13;19.13;;;;;;;1.92;100.00;98986.72;5053706;28;20037;-78
2021/01/24 07:56:23;;;;;;;36.28;18.00;;;;;;;1.96;100.00;98990.25;5049058;28;20031;-78
2021/01/24 07:58:50;;;;;;;41.50;18.52;;;;;;;1.98;100.00;98998.63;5065548;28;20103;-78
2021/01/24 08:01:36;;;;;;;37.65;17.77;;;;;;;2.03;100.00;98997.63;5067257;28;20025;-79
2021/01/24 08:04:26;;;;;;;38.45;19.17;;;;;;;2.01;100.00;99002.50;5000700;28;20049;-79
2021/01/24 08:06:53;;;;;;;42.85;19.67;;;;;;;2.03;100.00;99000.28;4975277;28;20050;-78
2021/01/24 08:09:19;;;;;;;41.42;20.15;;;;;;;2.06;100.00;98996.94;4974518;28;20063;-78
2021/01/24 08:11:45;;;;;;;43.80;21.88;;;;;;;2.11;100.00;99007.34;4972383;28;20125;-78
2021/01/24 08:14:13;;;;;;;41.20;20.23;;;;;;;2.12;100.00;99008.88;4973586;28;20261;-78
2021/01/24 08:16:45;;;;;;;45.03;21.17;;;;;;;2.09;100.00;99012.97;4947246;28;20035;-78
2021/01/24 08:19:13;;;;;;;46.20;21.00;;;;;;;2.10;100.00;99016.38;4947429;28;20047;-78
2021/01/24 08:21:39;;;;;;;42.05;19.58;;;;;;;2.10;100.00;99017.16;4977438;28;20162;-79
2021/01/24 08:24:26;;;;;;;42.58;20.80;;;;;;;2.13;100.00;99024.44;4978376;28;20133;-78
2021/01/24 08:26:52;;;;;;;39.63;19.35;;;;;;;2.14;100.00;99028.66;4944794;29;20103;-78
2021/01/24 08:29:17;;;;;;;41.30;21.20;;;;;;;2.17;100.00;99032.53;4923547;29;20063;-78
2021/01/24 08:31:45;;;;;;;41.80;20.27;;;;;;;2.20;100.00;99047.75;4921308;29;20048;-78
2021/01/24 08:34:12;;;;;;;40.88;20.13;;;;;;;2.15;100.00;99048.00;4922153;29;20157;-78
2021/01/24 08:36:38;;;;;;;41.05;20.33;;;;;;;2.19;100.00;99046.22;4923449;29;20044;-79
2021/01/24 08:39:05;;;;;;;42.10;20.00;;;;;;;2.21;100.00;99054.59;4943035;29;20039;-79
2021/01/24 08:41:34;;;;;;;41.90;19.95;;;;;;;2.21;100.00;99051.94;4951393;28;20034;-78
2021/01/24 08:44:15;;;;;;;41.58;20.00;;;;;;;2.26;100.00;99051.72;4981466;28;20051;-78
2021/01/24 08:47:00;;;;;;;41.13;19.42;;;;;;;2.22;100.00;99051.63;4970948;28;20062;-78
2021/01/24 08:49:30;;;;;;;43.20;20.23;;;;;;;2.23;100.00;99071.75;4999829;28;20085;-79
2021/01/24 08:52:01;;;;;;;40.45;19.20;;;;;;;2.26;100.00;99073.75;4965790;28;20046;-78
2021/01/24 08:54:34;;;;;;;43.53;21.00;;;;;;;2.28;100.00;99070.75;4987809;28;20045;-78
2021/01/24 08:57:16;;;;;;;38.55;19.70;;;;;;;2.29;100.00;99074.94;5001786;28;20047;-78
2021/01/24 08:59:50;;;;;;;40.58;19.20;;;;;;;2.29;100.00;99072.28;4981961;28;20034;-79
2021/01/24 09:02:30;;;;;;;43.00;20.77;;;;;;;2.31;100.00;99081.44;4971491;28;20072;-78
2021/01/24 09:04:56;;;;;;;41.57;20.07;;;;;;;2.33;100.00;99078.44;5070238;28;20064;-78
2021/01/24 09:07:22;;;;;;;41.30;21.08;;;;;;;2.32;100.00;99084.88;5065422;28;20032;-79
2021/01/24 09:09:50;;;;;;;43.83;21.48;;;;;;;2.33;100.00;99075.78;5096374;28;20182;-78
2021/01/24 09:12:21;;;;;;;47.70;22.48;;;;;;;2.31;100.00;99088.63;5055985;28;20044;-78
2021/01/24 09:14:48;;;;;;;52.25;24.77;;;;;;;2.32;100.00;99088.28;5046238;28;20051;-80
2021/01/24 09:17:16;;;;;;;54.92;24.15;;;;;;;2.31;100.00;99089.41;5062140;28;20060;-77
2021/01/24 09:19:43;;;;;;;57.85;25.27;;;;;;;2.35;100.00;99081.53;5054603;28;20032;-79
2021/01/24 09:22:10;;;;;;;52.50;24.67;;;;;;;2.31;100.00;99089.41;5041552;28;20521;-77
2021/01/24 09:24:37;;;;;;;47.95;23.20;;;;;;;2.30;100.00;99090.53;5072597;28;20040;-78
2021/01/24 09:27:04;;;;;;;52.38;24.13;;;;;;;2.37;100.00;99092.59;5073088;28;20111;-78
2021/01/24 09:29:30;;;;;;;48.80;24.42;;;;;;;2.40;100.00;99097.25;5065177;28;20673;-79
2021/01/24 09:31:55;;;;;;;49.80;22.33;;;;;;;2.43;100.00;99102.66;5048376;28;20060;-79
2021/01/24 09:34:21;;;;;;;50.22;23.38;;;;;;;2.49;100.00;99097.88;5051044;28;20420;-79
2021/01/24 09:36:47;;;;;;;46.25;22.42;;;;;;;2.50;100.00;99099.38;5064915;28;20043;-78
2021/01/24 09:39:15;;;;;;;45.03;21.80;;;;;;;2.50;100.00;99099.38;5046901;28;20101;-79
2021/01/24 09:41:41;;;;;;;49.45;23.00;;;;;;;2.45;100.00;99097.00;5045501;28;20035;-79
2021/01/24 09:44:07;;;;;;;51.40;23.75;;;;;;;2.49;100.00;99100.53;5044388;28;20036;-78
2021/01/24 09:46:33;;;;;;;53.58;24.55;;;;;;;2.52;100.00;99102.47;5053944;28;20468;-78
2021/01/24 09:48:58;;;;;;;46.47;22.80;;;;;;;2.56;100.00;99104.13;5044924;28;20047;-79
2021/01/24 09:51:24;;;;;;;47.03;23.48;;;;;;;2.59;100.00;99100.03;5034621;28;20043;-78
2021/01/24 09:53:56;;;;;;;45.50;22.27;;;;;;;2.66;100.00;99105.53;5058933;28;20405;-78
2021/01/24 09:56:23;;;;;;;47.67;21.67;;;;;;;2.69;100.00;99105.59;5084448;28;20457;-78
2021/01/24 09:58:48;;;;;;;45.47;22.77;;;;;;;2.70;100.00;99103.72;5056475;28;20131;-78
2021/01/24 10:01:14;;;;;;;43.60;21.38;;;;;;;2.65;100.00;99101.34;5039308;28;20067;-78
2021/01/24 10:03:39;;;;;;;45.50;22.73;;;;;;;2.67;100.00;99099.09;5067852;28;20024;-78
2021/01/24 10:06:06;;;;;;;142.73;64.72;;;;;;;2.68;100.00;99104.06;5071399;28;20040;-78
2021/01/24 10:08:32;;;;;;;85.78;40.95;;;;;;;2.69;100.00;99107.50;5062463;28;20047;-78
2021/01/24 10:10:58;;;;;;;46.85;22.13;;;;;;;2.66;100.00;99113.50;5057485;28;20412;-79
2021/01/24 10:13:24;;;;;;;44.25;22.70;;;;;;;2.66;100.00;99116.16;5041043;28;20401;-78
2021/01/24 10:15:51;;;;;;;43.28;21.00;;;;;;;2.69;100.00;99118.88;5073848;28;20028;-78
2021/01/24 10:18:18;;;;;;;41.60;21.13;;;;;;;2.70;100.00;99120.44;5063054;28;20524;-79
2021/01/24 10:20:44;;;;;;;36.90;18.45;;;;;;;2.55;100.00;99118.53;5034426;28;20508;-79
2021/01/24 10:23:11;;;;;;;39.45;20.05;;;;;;;2.61;100.00;99121.72;5053936;28;20024;-77
2021/01/24 10:25:37;;;;;;;42.20;20.02;;;;;;;2.67;100.00;99109.75;5055621;28;20036;-77
2021/01/24 10:28:03;;;;;;;39.08;19.63;;;;;;;2.73;100.00;99130.38;5039189;28;20045;-78
2021/01/24 10:30:30;;;;;;;39.80;19.48;;;;;;;2.77;100.00;99124.41;5036821;28;20040;-78
2021/01/24 10:32:59;;;;;;;40.38;20.15;;;;;;;2.77;100.00;99122.50;5038200;28;20082;-78
2021/01/24 10:35:24;;;;;;;37.05;19.85;;;;;;;2.79;100.00;99125.59;5055759;28;20086;-79
2021/01/24 10:37:51;;;;;;;40.13;19.25;;;;;;;2.75;100.00;99119.41;5053977;28;20032;-78
2021/01/24 10:40:16;;;;;;;41.42;20.33;;;;;;;2.78;100.00;99121.41;5058030;28;20034;-78
2021/01/24 10:42:42;;;;;;;44.40;19.92;;;;;;;2.84;100.00;99128.00;5048085;28;20480;-77
2021/01/24 10:45:10;;;;;;;39.08;18.88;;;;;;;2.82;100.00;99122.28;5051147;28;20456;-77
2021/01/24 10:47:36;;;;;;;38.00;18.83;;;;;;;2.79;100.00;99132.81;5067353;28;20028;-78
2021/01/24 10:50:03;;;;;;;39.47;19.85;;;;;;;2.81;100.00;99123.38;5032788;28;20058;-78
2021/01/24 10:52:28;;;;;;;39.97;20.10;;;;;;;2.86;100.00;99125.00;5039666;28;20040;-79
2021/01/24 10:54:54;;;;;;;41.45;19.40;;;;;;;2.95;100.00;99130.94;5053381;28;20025;-80
2021/01/24 10:57:19;;;;;;;36.00;19.45;;;;;;;2.96;100.00;99130.59;5086393;28;20405;-79
2021/01/24 10:59:45;;;;;;;37.75;18.60;;;;;;;2.97;100.00;99132.13;5054340;28;20040;-78
2021/01/24 11:02:10;;;;;;;34.75;18.30;;;;;;;3.00;100.00;99128.78;5050218;28;20036;-80
2021/01/24 11:04:39;;;;;;;35.63;18.13;;;;;;;3.01;100.00;99132.22;5038729;28;20021;-80
2021/01/24 11:07:04;;;;;;;39.53;19.50;;;;;;;3.03;100.00;99128.13;5040383;28;20047;-78
2021/01/24 11:09:30;;;;;;;33.47;18.40;;;;;;;2.97;100.00;99124.16;5036666;28;20029;-78
2021/01/24 11:11:56;;;;;;;35.35;17.75;;;;;;;3.04;100.00;99136.88;5036788;28;20413;-80
2021/01/24 11:14:22;;;;;;;38.38;18.83;;;;;;;3.05;100.00;99125.91;5042020;28;20028;-78
2021/01/24 11:16:47;;;;;;;38.95;19.10;;;;;;;3.14;100.00;99121.16;5053209;28;20031;-79
2021/01/24 11:19:13;;;;;;;36.78;18.65;;;;;;;3.11;100.00;99123.75;5061173;28;20100;-79
2021/01/24 11:21:39;;;;;;;35.92;19.13;;;;;;;3.11;100.00;99131.72;5038014;28;20058;-80